Airfield :
LOGIN :

Register | Disclaimer

   EN    FR    IT 

 










Legend :    VFR   Marginal VFR   IFR   Intensive IFR   Very Intensive IFR
Visi :
Ceiling :
>= 8 km
>= 3000ft
5 to 8 km
1000 to 3000 ft
1500m to 5 km
500 to 1000 ft
800 to 1500m
200 to 500 ft
< 800m
< 200 ft
Symbols :   Thunderstorms  Fog  Heavy snow  Heavy precipitations  Wind > 20 kt
SIGMETs :     Misc.  Thunderstorms  Icing  Turbulence  Mountain Waves  Volcanic Ashes







- Airport Elevation : 90 ft
- IATA code : NTE
- Download approach charts


LFRS - Nantes

CURRENT METAR :
  • 182300Z AUTO VRB03KT 0350 0300 R03/0400N R21/0500N FG VV/// 05/05 Q1025 TEMPO 0600 FG

EXPIRED METARs :
  • 182230Z AUTO VRB03KT 0500 0450 R03/0700D R21/0700D FG VV/// 06/05 Q1026 TEMPO 0300
  • 182200Z AUTO 29003KT 250V320 0800 0550 R03/1000D R21/1200D FG VV/// 06/05 Q1026 NOSIG
  • 182130Z AUTO VRB03KT 1400 0900 R03/1700U R21/1900D BCFG VV/// 06/05 Q1026 BECMG 0600 FG
  • 182100Z AUTO VRB02KT 2300 0800 R03/P2000 R21/P2000 BCFG OVC002 06/06 Q1026 BECMG 0600 FG VV///
  • 182030Z AUTO VRB03KT 3700 BR OVC003 06/06 Q1026 BECMG 0600 FG VV///

TAF AMD TAF LFRS
Valid from the 18 at 19:00 until the 20 at 00:00 UTC


181901Z 1819/1924 VRB03KT 3000 BR BKN002
BECMG 1819/1821 0600 FG VV///
TEMPO 1900/1912 0300
BECMG 1913/1915 7000 NSW BKN010
ATIS : +33 2 40 05 12 74
No reported NOTAMs for that airfield.



MET'MAP, your aeronautical weather chart ! - Copyright ORBIFLY December 2007 - Disclaimer

ORBIFLY MET'MAP TEAM :

Programming & Development : Alexandra Zaïnal
Concept & Development : Baudouin d'Aumeries
Co-Development & Prog : Marc-Olivier Méhu
Technical & hardware support : Manuel Goepfert

Contact : metmap@orbifly.com




SOURCES & CREDITS :

   NOAA